Weather History for KIGQ - March, 2014

Change the Weather History Date:

Wednesday, March 12, 2014

  Actual Average (KMDW) Record (KMDW)
Temperature  
Mean Temperature 24 °F 37 °F  
Max Temperature 32 °F 45 °F 81 °F (1990)
Min Temperature 16 °F 30 °F 1 °F (1948)
Degree Days  
Heating Degree Days 40 28  
Month to date heating degree days 356  
Since 1 July heating degree days 4867  
Cooling Degree Days 0 0  
Month to date cooling degree days 0  
Year to date cooling degree days 0  
Moisture  
Dew Point 20 °F    
Average Humidity 78    
Maximum Humidity 96    
Minimum Humidity 64    
Precipitation  
Precipitation 0.29 in 0.08 in 1.30 in (1953)
Month to date precipitation 1.01  
Year to date precipitation 5.01  
Sea Level Pressure  
Sea Level Pressure 29.88 in    
Wind  
Wind Speed 14 mph (North)    
Max Wind Speed 22 mph    
Max Gust Speed 32 mph    
Visibility 6 miles    
Events Snow    
T = Trace of Precipitation, MM = Missing Value Source: NWS Daily Summary

Daily Weather History Graph

Daily Weather History Graph

Search for Another Location

Airport or City:

Trip Planner

Search our weather history database for the weather conditions in past years. The results will help you decide how hot, cold, wet, or windy it might be!

Date:

Astronomy

Mar. 12, 2014 Rise Set
Actual Time 7:06 AM CDT 6:53 PM CDT
Civil Twilight 6:39 AM CDT 7:21 PM CDT
Nautical Twilight 6:07 AM CDT 7:53 PM CDT
Astronomical Twilight 5:34 AM CDT 8:25 PM CDT
Moon 3:21 PM CDT (3/12) 4:40 AM CDT (3/12)
Length of Visible Light 12h 41m
Length of Day
11h 46m
Waxing Gibbous, 85% of the Moon is Illuminated
Mar 12
Waxing Gibbous
Mar 16
Full
Mar 23
Last Quarter
Mar 30
New
Apr 7
First Quarter

Hourly Weather History & Observations

Time (CDT) Temp. Windchill Dew Point Humidity Pressure Visibility Wind Dir Wind Speed Gust Speed Precip Events Conditions
12:15 AM 32.5 °F 23.2 °F 31.5 °F 96% 29.70 in 5.0 mi NNE 12.7 mph 19.6 mph N/A Snow Light Snow
12:35 AM 32.5 °F 23.2 °F 31.6 °F 96% 29.68 in 3.0 mi NNE 12.7 mph 18.4 mph 0.03 in Snow Light Snow
12:55 AM 32.5 °F 23.2 °F 31.6 °F 96% 29.67 in 3.0 mi North 12.7 mph 16.1 mph 0.06 in Snow Light Snow
1:15 AM 32.5 °F 22.7 °F 31.6 °F 96% 29.66 in 3.0 mi NNE 13.8 mph 20.7 mph 0.02 in Snow Light Snow
1:35 AM 32.5 °F 23.2 °F 31.6 °F 96% 29.65 in 2.0 mi NNE 12.7 mph 21.9 mph 0.05 in   Overcast
1:55 AM 32.5 °F 23.2 °F 31.6 °F 96% 29.63 in 2.5 mi NNE 12.7 mph 21.9 mph 0.08 in Snow Light Snow
2:15 AM 32.5 °F 24.2 °F 31.6 °F 96% 29.66 in 2.0 mi North 10.4 mph 19.6 mph 0.02 in Snow Light Snow
2:35 AM 32.5 °F 23.2 °F 31.6 °F 96% 29.66 in 1.5 mi NNE 12.7 mph 25.3 mph 0.05 in Snow Light Snow
2:55 AM 32.4 °F 23.5 °F 31.5 °F 96% 29.67 in 1.0 mi NNE 11.5 mph 17.3 mph 0.07 in Snow Light Snow
3:15 AM 32.2 °F 20.7 °F 31.1 °F 96% 29.65 in 0.8 mi NNE 18.4 mph 26.5 mph 0.02 in Snow Snow
3:35 AM 32.0 °F 21.2 °F 31.1 °F 96% 29.66 in 0.8 mi NNE 16.1 mph 27.6 mph 0.04 in Snow Snow
3:55 AM 32.0 °F 21.6 °F 31.1 °F 96% 29.67 in 0.8 mi North 15.0 mph 21.9 mph 0.07 in Snow Light Snow
4:15 AM 32.0 °F 22.1 °F 30.7 °F 95% 29.68 in 0.8 mi NNE 13.8 mph 24.2 mph N/A Snow Snow
4:35 AM 32.0 °F 22.5 °F 30.2 °F 93% 29.68 in 0.5 mi NNE 12.7 mph 27.6 mph N/A Snow Snow
4:55 AM 31.6 °F 20.4 °F 30.0 °F 94% 29.69 in 0.8 mi NNE 17.3 mph 25.3 mph 0.01 in Snow Snow
5:15 AM 30.7 °F 19.6 °F 29.1 °F 94% 29.69 in 0.5 mi North 16.1 mph 26.5 mph N/A Snow Heavy Snow
5:35 AM 30.0 °F 18.3 °F 28.2 °F 93% 29.69 in 0.8 mi North 17.3 mph 28.8 mph N/A Snow Snow
5:55 AM 29.3 °F 16.6 °F 27.3 °F 92% 29.70 in 0.8 mi North 19.6 mph 29.9 mph N/A Snow Snow
6:15 AM 28.9 °F 16.9 °F 26.8 °F 92% 29.71 in 1.2 mi North 17.3 mph 29.9 mph N/A Snow Light Snow
6:35 AM 28.4 °F 15.8 °F 26.1 °F 91% 29.71 in 1.5 mi NNE 18.4 mph 31.1 mph N/A Snow Light Snow
6:55 AM 28.8 °F 16.6 °F 26.4 °F 91% 29.72 in 1.8 mi North 17.3 mph 24.2 mph N/A Snow Light Snow
7:15 AM 28.8 °F 17.5 °F 26.1 °F 90% 29.74 in 4.0 mi North 15.0 mph 24.2 mph N/A Snow Light Snow
7:35 AM 28.9 °F 16.5 °F 24.6 °F 84% 29.75 in 2.0 mi North 18.4 mph 24.2 mph N/A Snow Light Snow
7:55 AM 29.7 °F 19.6 °F 22.3 °F 74% 29.75 in 7.0 mi North 12.7 mph 23.0 mph N/A Snow Light Snow
8:15 AM 29.8 °F 19.3 °F 22.5 °F 74% 29.76 in 4.0 mi North 13.8 mph 27.6 mph N/A   Haze
8:35 AM 29.8 °F 18.4 °F 23.0 °F 76% 29.77 in 7.0 mi North 16.1 mph 24.2 mph N/A   Overcast
8:55 AM 29.7 °F 18.6 °F 24.4 °F 81% 29.80 in 5.0 mi North 15.0 mph 27.6 mph N/A   Haze
9:15 AM 29.3 °F 17.3 °F 24.3 °F 81% 29.80 in 7.0 mi North 17.3 mph 26.5 mph N/A   Overcast
9:35 AM 29.1 °F 16.4 °F 23.9 °F 81% 29.82 in 4.0 mi North 19.6 mph 27.6 mph N/A   Haze
9:55 AM 28.4 °F 16.2 °F 23.0 °F 80% 29.83 in 5.0 mi North 17.3 mph 28.8 mph N/A   Haze
10:15 AM 28.4 °F 15.1 °F 22.6 °F 79% 29.84 in 4.0 mi North 20.7 mph 27.6 mph N/A   Haze
10:35 AM 28.0 °F 16.5 °F 22.1 °F 78% 29.85 in 7.0 mi North 15.0 mph 27.6 mph N/A   Overcast
10:55 AM 28.0 °F 16.1 °F 21.4 °F 76% 29.86 in 7.0 mi North 16.1 mph 28.8 mph N/A   Overcast
11:15 AM 27.9 °F 15.5 °F 21.0 °F 75% 29.87 in 7.0 mi North 17.3 mph 27.6 mph N/A   Overcast
11:35 AM 28.4 °F 16.2 °F 21.6 °F 76% 29.87 in 10.0 mi North 17.3 mph 25.3 mph N/A   Overcast
11:55 AM 28.4 °F 16.2 °F 21.6 °F 76% 29.88 in 10.0 mi North 17.3 mph 27.6 mph N/A   Overcast
12:15 PM 26.6 °F 12.4 °F 19.4 °F 74% 29.89 in 7.0 mi North 21.9 mph 32.2 mph N/A   Overcast
12:35 PM 26.4 °F 13.6 °F 19.2 °F 74% 29.91 in 5.0 mi North 17.3 mph 29.9 mph N/A   Haze
1:15 PM 24.8 °F 11.1 °F 17.2 °F 73% 29.94 in 10.0 mi North 18.4 mph 26.5 mph N/A   Overcast
1:35 PM 24.6 °F 10.9 °F 17.1 °F 73% 29.94 in 7.0 mi NNW 18.4 mph 25.3 mph N/A   Overcast
1:55 PM 23.9 °F 10.3 °F 16.7 °F 74% 29.95 in 10.0 mi North 17.3 mph 24.2 mph N/A   Overcast
2:15 PM 24.3 °F 10.0 °F 16.0 °F 71% 29.95 in 10.0 mi North 19.6 mph 24.2 mph N/A   Mostly Cloudy
2:35 PM 23.9 °F 10.3 °F 15.6 °F 71% 29.95 in 10.0 mi North 17.3 mph 24.2 mph N/A   Overcast
2:55 PM 24.1 °F 11.5 °F 15.1 °F 69% 29.96 in 10.0 mi North 15.0 mph 24.2 mph N/A   Mostly Cloudy
3:15 PM 23.9 °F 9.5 °F 14.5 °F 67% 29.97 in 10.0 mi North 19.6 mph 28.8 mph N/A   Mostly Cloudy
3:35 PM 23.2 °F 9.0 °F 13.8 °F 67% 29.98 in 10.0 mi NNE 18.4 mph 26.5 mph N/A   Mostly Cloudy
3:55 PM 23.7 °F 11.0 °F 14.2 °F 67% 29.99 in 10.0 mi NNE 15.0 mph 25.3 mph N/A   Scattered Clouds
4:15 PM 23.0 °F 10.6 °F 13.1 °F 66% 30.01 in 10.0 mi North 13.8 mph 23.0 mph N/A   Scattered Clouds
4:35 PM 23.0 °F 11.7 °F 13.3 °F 66% 30.01 in 10.0 mi NNE 11.5 mph 24.2 mph N/A   Clear
4:55 PM 23.4 °F 11.1 °F 13.3 °F 65% 30.01 in 10.0 mi North 13.8 mph 19.6 mph N/A   Clear
5:15 PM 22.8 °F 12.2 °F 12.4 °F 64% 30.02 in 10.0 mi North 10.4 mph 20.7 mph N/A   Clear
5:35 PM 22.6 °F 11.3 °F 12.9 °F 66% 30.03 in 10.0 mi North 11.5 mph 18.4 mph N/A   Clear
5:55 PM 22.6 °F 10.1 °F 12.9 °F 66% 30.04 in 10.0 mi NNE 13.8 mph 18.4 mph N/A   Scattered Clouds
6:15 PM 22.1 °F 8.9 °F 12.2 °F 66% 30.05 in 10.0 mi North 15.0 mph 20.7 mph N/A   Scattered Clouds
6:35 PM 21.9 °F 11.0 °F 12.2 °F 66% 30.06 in 10.0 mi North 10.4 mph 18.4 mph N/A   Clear
6:55 PM 21.6 °F 12.1 °F 12.2 °F 67% 30.07 in 10.0 mi North 8.1 mph 17.3 mph N/A   Clear
7:15 PM 21.2 °F 10.9 °F 11.8 °F 67% 30.07 in 10.0 mi North 9.2 mph - N/A   Clear
7:35 PM 21.0 °F 9.9 °F 11.3 °F 66% 30.08 in 10.0 mi North 10.4 mph 17.3 mph N/A   Clear
7:55 PM 20.8 °F 12.1 °F 11.7 °F 68% 30.09 in 10.0 mi North 6.9 mph 16.1 mph N/A   Clear
8:15 PM 20.3 °F 10.6 °F 11.5 °F 69% 30.09 in 10.0 mi North 8.1 mph - N/A   Clear
8:35 PM 20.3 °F 9.8 °F 10.9 °F 67% 30.10 in 10.0 mi North 9.2 mph - N/A   Clear
8:55 PM 20.1 °F 10.3 °F 10.6 °F 67% 30.10 in 10.0 mi North 8.1 mph - N/A   Clear
9:15 PM 19.9 °F 11.1 °F 10.4 °F 67% 30.10 in 10.0 mi North 6.9 mph - N/A   Clear
9:35 PM 19.4 °F 10.4 °F 10.0 °F 67% 30.11 in 10.0 mi North 6.9 mph - N/A   Clear
9:55 PM 19.8 °F 13.2 °F 9.9 °F 65% 30.11 in 10.0 mi North 4.6 mph - N/A   Clear
10:15 PM 19.2 °F 12.5 °F 9.9 °F 67% 30.11 in 10.0 mi North 4.6 mph - N/A   Clear
10:35 PM 19.0 °F 12.3 °F 9.0 °F 65% 30.11 in 10.0 mi North 4.6 mph - N/A   Clear
10:55 PM 18.3 °F - 9.0 °F 67% 30.11 in 10.0 mi Calm Calm - N/A   Clear
11:15 PM 18.0 °F 11.1 °F 9.1 °F 68% 30.11 in 10.0 mi NNW 4.6 mph - N/A   Clear
11:35 PM 17.2 °F 11.9 °F 9.5 °F 72% 30.11 in 10.0 mi NW 3.5 mph - N/A   Clear
11:55 PM 16.0 °F 8.8 °F 9.3 °F 75% 30.11 in 10.0 mi WNW 4.6 mph - N/A   Clear